createdAt,value
2022-08-19T00:00:29.230Z,29.8
2022-08-19T00:01:31.544Z,29.8
2022-08-19T00:03:43.490Z,29.8
2022-08-19T00:04:45.798Z,29.8
2022-08-19T00:05:47.813Z,29.8
2022-08-19T00:06:50.278Z,29.8
2022-08-19T00:07:52.751Z,29.8
2022-08-19T00:08:55.246Z,29.8
2022-08-19T00:09:58.172Z,29.8
2022-08-19T00:11:00.642Z,29.8
2022-08-19T00:12:03.113Z,29.8
2022-08-19T00:13:05.634Z,29.9
2022-08-19T00:14:08.118Z,29.8
2022-08-19T00:16:15.589Z,29.9
2022-08-19T00:17:17.782Z,29.9
2022-08-19T00:18:19.981Z,29.9
2022-08-19T00:19:22.452Z,29.9
2022-08-19T00:20:24.642Z,29.9
2022-08-19T00:21:26.576Z,29.9
2022-08-19T00:22:29.083Z,29.9
2022-08-19T00:23:31.561Z,29.9
2022-08-19T00:24:34.290Z,29.9
2022-08-19T00:25:38.200Z,29.9
2022-08-19T00:26:41.509Z,29.9
2022-08-19T00:27:43.986Z,29.9
2022-08-19T00:28:46.186Z,29.9
2022-08-19T00:30:53.396Z,29.9
2022-08-19T00:31:55.889Z,29.9
2022-08-19T00:32:57.542Z,29.9
2022-08-19T00:33:59.758Z,29.9
2022-08-19T00:35:02.240Z,29.9
2022-08-19T00:36:04.724Z,29.9
2022-08-19T00:37:08.976Z,29.9
2022-08-19T00:38:11.474Z,29.9
2022-08-19T00:39:13.946Z,29.9
2022-08-19T00:40:16.141Z,29.9
2022-08-19T00:41:18.617Z,29.9
2022-08-19T00:42:21.099Z,29.9
2022-08-19T00:43:23.294Z,29.9
2022-08-19T00:44:27.993Z,29.9
2022-08-19T00:45:30.217Z,29.9
2022-08-19T00:46:38.576Z,29.9
2022-08-19T00:47:41.048Z,30
2022-08-19T00:48:43.520Z,29.9
2022-08-19T00:49:46.028Z,29.9
2022-08-19T00:51:54.657Z,29.9
2022-08-19T00:52:57.136Z,30
2022-08-19T00:53:59.609Z,30
2022-08-19T00:55:01.803Z,30
2022-08-19T00:56:04.283Z,30
2022-08-19T00:57:06.769Z,30
2022-08-19T00:58:09.284Z,30
2022-08-19T00:59:11.840Z,30
2022-08-19T01:00:14.036Z,30
2022-08-19T01:01:16.653Z,30
2022-08-19T01:02:18.683Z,30
2022-08-19T01:03:20.615Z,30
2022-08-19T01:04:23.085Z,30
2022-08-19T01:05:25.573Z,30
2022-08-19T01:06:27.799Z,30
2022-08-19T01:08:35.271Z,30
2022-08-19T01:09:37.483Z,30
2022-08-19T01:10:39.961Z,30
2022-08-19T01:11:42.140Z,30
2022-08-19T01:12:44.352Z,30
2022-08-19T01:14:51.525Z,30
2022-08-19T01:15:53.729Z,30
2022-08-19T01:16:55.630Z,30
2022-08-19T01:17:58.100Z,30
2022-08-19T01:19:00.573Z,30
2022-08-19T01:20:02.769Z,30
2022-08-19T01:21:05.245Z,30
2022-08-19T01:23:12.443Z,30
2022-08-19T01:24:14.910Z,30
2022-08-19T01:25:17.596Z,30
2022-08-19T01:26:21.282Z,30
2022-08-19T01:27:25.688Z,30
2022-08-19T01:29:37.763Z,30
2022-08-19T01:31:50.729Z,30
2022-08-19T01:32:53.479Z,30
2022-08-19T01:33:56.648Z,30
2022-08-19T01:34:58.846Z,30
2022-08-19T01:36:01.081Z,30
2022-08-19T01:37:06.074Z,30
2022-08-19T01:38:09.854Z,30
2022-08-19T01:39:15.828Z,30
2022-08-19T01:40:18.542Z,30
2022-08-19T01:41:21.113Z,30
2022-08-19T01:43:28.316Z,30
2022-08-19T01:44:30.780Z,30
2022-08-19T01:45:33.252Z,30
2022-08-19T01:46:35.486Z,30
2022-08-19T01:47:37.683Z,30
2022-08-19T01:48:40.155Z,30
2022-08-19T01:49:42.649Z,30
2022-08-19T01:50:45.162Z,30
2022-08-19T01:51:47.355Z,30
2022-08-19T01:53:54.846Z,30
2022-08-19T01:54:57.312Z,30
2022-08-19T01:55:59.799Z,30
2022-08-19T01:57:02.002Z,30
2022-08-19T01:58:04.469Z,30
2022-08-19T01:59:06.977Z,30
2022-08-19T02:00:08.610Z,30
2022-08-19T02:01:11.314Z,30.1
2022-08-19T02:02:13.642Z,30.1
2022-08-19T02:03:15.840Z,30.1
2022-08-19T02:04:18.310Z,30.1
2022-08-19T02:05:20.236Z,30.1
2022-08-19T02:07:27.704Z,30.1
2022-08-19T02:08:30.183Z,30.1
2022-08-19T02:09:32.658Z,30.1
2022-08-19T02:10:35.132Z,30.1
2022-08-19T02:11:37.336Z,30
2022-08-19T02:12:39.799Z,30.1
2022-08-19T02:13:43.329Z,30.1
2022-08-19T02:14:45.828Z,30.1
2022-08-19T02:15:48.320Z,30.1
2022-08-19T02:16:50.817Z,30.1
2022-08-19T02:17:53.021Z,30.1
2022-08-19T02:18:55.234Z,30.1
2022-08-19T02:19:57.440Z,30.1
2022-08-19T02:20:59.355Z,30.1
2022-08-19T02:22:01.860Z,30.1
2022-08-19T02:23:03.785Z,30.1
2022-08-19T02:24:06.259Z,30.1
2022-08-19T02:25:08.732Z,30.1
2022-08-19T02:26:10.926Z,30.1
2022-08-19T02:27:13.388Z,30.1
2022-08-19T02:29:20.584Z,30.1
2022-08-19T02:30:23.056Z,30.1
2022-08-19T02:31:26.552Z,30.1
2022-08-19T02:32:29.024Z,30.1
2022-08-19T02:33:30.933Z,30.1
2022-08-19T02:34:33.403Z,30.1
2022-08-19T02:35:35.876Z,30.1
2022-08-19T02:37:43.050Z,30
2022-08-19T02:39:50.429Z,30
2022-08-19T02:40:52.875Z,30
2022-08-19T02:41:55.126Z,30
2022-08-19T02:42:57.304Z,29.9
2022-08-19T02:45:04.773Z,29.9
2022-08-19T02:46:07.244Z,29.9
2022-08-19T02:47:09.716Z,29.8
2022-08-19T02:49:16.353Z,29.8
2022-08-19T02:50:19.136Z,29.8
2022-08-19T02:51:21.624Z,29.8
2022-08-19T02:52:23.835Z,29.8
2022-08-19T02:53:26.302Z,29.7
2022-08-19T02:54:28.042Z,29.7
2022-08-19T02:55:30.245Z,29.7
2022-08-19T02:56:36.708Z,29.7
2022-08-19T02:57:38.623Z,29.7
2022-08-19T02:58:41.112Z,29.7
2022-08-19T02:59:44.516Z,29.7
2022-08-19T03:00:46.991Z,29.7
2022-08-19T03:01:49.466Z,29.7
2022-08-19T03:02:53.323Z,29.7
2022-08-19T03:03:56.331Z,29.6
2022-08-19T03:04:58.798Z,29.6
2022-08-19T03:06:01.287Z,29.6
2022-08-19T03:08:08.202Z,29.6
2022-08-19T03:09:10.256Z,29.6
2022-08-19T03:10:12.457Z,29.6
2022-08-19T03:11:14.930Z,29.6
2022-08-19T03:12:17.144Z,29.6
2022-08-19T03:13:19.629Z,29.6
2022-08-19T03:14:21.707Z,29.6
2022-08-19T03:15:24.341Z,29.6
2022-08-19T03:16:26.321Z,29.6
2022-08-19T03:17:28.848Z,29.6
2022-08-19T03:18:31.132Z,29.6
2022-08-19T03:19:33.968Z,29.6
2022-08-19T03:20:36.452Z,29.6
2022-08-19T03:21:38.923Z,29.6
2022-08-19T03:22:41.400Z,29.6
2022-08-19T03:23:43.876Z,29.6
2022-08-19T03:24:46.351Z,29.6
2022-08-19T03:26:53.823Z,29.6
2022-08-19T03:27:56.288Z,29.6
2022-08-19T03:28:59.964Z,29.6
2022-08-19T03:34:28.064Z,29.6
2022-08-19T03:35:30.537Z,29.6
2022-08-19T03:36:32.749Z,29.6
2022-08-19T03:37:35.220Z,29.6
2022-08-19T03:38:37.696Z,29.6
2022-08-19T03:39:40.370Z,29.6
2022-08-19T03:40:43.032Z,29.6
2022-08-19T03:41:49.157Z,29.6
2022-08-19T03:42:57.501Z,29.5
2022-08-19T03:43:59.697Z,29.5
2022-08-19T03:45:01.345Z,29.5
2022-08-19T03:46:03.821Z,29.5
2022-08-19T03:47:06.305Z,29.5
2022-08-19T03:48:08.787Z,29.5
2022-08-19T03:49:10.721Z,29.5
2022-08-19T03:50:16.692Z,29.5
2022-08-19T03:52:24.161Z,29.5
2022-08-19T03:53:26.634Z,29.5
2022-08-19T03:54:29.117Z,29.5
2022-08-19T03:55:31.591Z,29.5
2022-08-19T03:56:33.788Z,29.5
2022-08-19T03:57:35.703Z,29.5
2022-08-19T03:58:37.914Z,29.5
2022-08-19T03:59:40.109Z,29.5
2022-08-19T04:00:42.317Z,29.5
2022-08-19T04:01:44.611Z,29.5
2022-08-19T04:04:57.726Z,29.5
2022-08-19T04:05:59.902Z,29.5
2022-08-19T04:07:02.112Z,29.5
2022-08-19T04:08:04.310Z,29.5
2022-08-19T04:09:06.780Z,29.5
2022-08-19T04:11:14.244Z,29.5
2022-08-19T04:12:16.733Z,29.5
2022-08-19T04:13:18.928Z,29.5
2022-08-19T04:14:21.157Z,29.5
2022-08-19T04:15:23.056Z,29.5
2022-08-19T04:17:30.256Z,29.5
2022-08-19T04:19:37.464Z,29.5
2022-08-19T04:20:39.934Z,29.5
2022-08-19T04:21:42.411Z,29.5
2022-08-19T04:22:44.883Z,29.5
2022-08-19T04:23:48.830Z,29.5
2022-08-19T04:24:55.032Z,29.5
2022-08-19T04:25:59.140Z,29.5
2022-08-19T04:27:01.338Z,29.5
2022-08-19T04:28:03.237Z,29.5
2022-08-19T04:30:10.923Z,29.5
2022-08-19T04:31:13.400Z,29.5
2022-08-19T04:32:15.611Z,29.5
2022-08-19T04:34:22.801Z,29.5
2022-08-19T04:35:26.026Z,29.5
2022-08-19T04:36:28.494Z,29.5
2022-08-19T04:38:36.000Z,29.5
2022-08-19T04:39:38.354Z,29.5
2022-08-19T04:40:40.924Z,29.5
2022-08-19T04:41:43.391Z,29.5
2022-08-19T04:42:45.864Z,29.5
2022-08-19T04:43:48.335Z,29.5
2022-08-19T04:44:54.894Z,29.5
2022-08-19T04:49:16.154Z,29.5
2022-08-19T04:50:20.849Z,29.5
2022-08-19T04:51:23.050Z,29.5
2022-08-19T04:52:25.975Z,29.5
2022-08-19T04:53:28.451Z,29.5
2022-08-19T04:56:40.929Z,29.5
2022-08-19T04:57:43.161Z,29.5
2022-08-19T04:58:45.632Z,29.5
2022-08-19T04:59:47.839Z,29.5
2022-08-19T05:00:50.452Z,29.5
2022-08-19T05:01:52.858Z,29.5
2022-08-19T05:02:55.841Z,29.5
2022-08-19T05:03:58.342Z,29.5
2022-08-19T05:05:00.815Z,29.5
2022-08-19T05:06:03.282Z,29.5
2022-08-19T05:07:05.480Z,29.5
2022-08-19T05:08:07.685Z,29.5
2022-08-19T05:09:10.160Z,29.5
2022-08-19T05:10:12.926Z,29.5
2022-08-19T05:11:15.403Z,29.5
2022-08-19T05:12:17.914Z,29.5
2022-08-19T05:13:19.858Z,29.5
2022-08-19T05:14:22.338Z,29.5
2022-08-19T05:15:24.813Z,29.5
2022-08-19T05:16:27.286Z,29.5
2022-08-19T05:18:34.753Z,29.5
2022-08-19T05:19:37.233Z,29.5
2022-08-19T05:20:39.700Z,29.4
2022-08-19T05:21:41.904Z,29.4
2022-08-19T05:22:44.109Z,29.4
2022-08-19T05:23:46.306Z,29.4
2022-08-19T05:25:53.875Z,29.5
2022-08-19T05:26:56.077Z,29.5
2022-08-19T05:27:58.270Z,29.4
2022-08-19T05:29:01.227Z,29.4
2022-08-19T05:30:04.240Z,29.4
2022-08-19T05:31:06.716Z,29.5
2022-08-19T05:32:09.217Z,29.5
2022-08-19T05:33:11.695Z,29.4
2022-08-19T05:35:19.169Z,29.5
2022-08-19T05:36:21.642Z,29.4
2022-08-19T05:37:23.909Z,29.4
2022-08-19T05:38:25.811Z,29.4
2022-08-19T05:39:28.297Z,29.4
2022-08-19T05:40:30.352Z,29.4
2022-08-19T05:41:32.837Z,29.4
2022-08-19T05:42:39.030Z,29.5
2022-08-19T05:43:41.241Z,29.5
2022-08-19T05:44:43.737Z,29.4
2022-08-19T05:45:45.407Z,29.4
2022-08-19T05:46:47.592Z,29.4
2022-08-19T05:47:49.790Z,29.4
2022-08-19T05:49:57.270Z,29.4
2022-08-19T05:50:59.739Z,29.4
2022-08-19T05:52:02.296Z,29.4
2022-08-19T05:53:04.215Z,29.4
2022-08-19T05:54:06.431Z,29.4
2022-08-19T05:55:08.675Z,29.4
2022-08-19T05:56:11.156Z,29.4
2022-08-19T05:57:14.363Z,29.4
2022-08-19T05:58:16.838Z,29.4
2022-08-19T05:59:25.941Z,29.4
2022-08-19T06:00:28.521Z,29.4
2022-08-19T06:01:30.777Z,29.4
2022-08-19T06:02:33.145Z,29.4
2022-08-19T06:03:35.767Z,29.4
2022-08-19T06:04:38.235Z,29.4
2022-08-19T06:06:45.705Z,29.4
2022-08-19T06:07:48.166Z,29.4
2022-08-19T06:08:50.900Z,29.4
2022-08-19T06:10:58.378Z,29.4
2022-08-19T06:12:00.858Z,29.4
2022-08-19T06:13:03.065Z,29.4
2022-08-19T06:14:05.288Z,29.4
2022-08-19T06:15:07.769Z,29.4
2022-08-19T06:16:09.987Z,29.4
2022-08-19T06:17:12.458Z,29.4
2022-08-19T06:18:14.633Z,29.4
2022-08-19T06:19:16.850Z,29.4
2022-08-19T06:21:24.317Z,29.4
2022-08-19T06:22:26.523Z,29.4
2022-08-19T06:23:29.001Z,29.4
2022-08-19T06:24:30.930Z,29.4
2022-08-19T06:25:33.450Z,29.4
2022-08-19T06:26:36.049Z,29.4
2022-08-19T06:28:43.710Z,29.4
2022-08-19T06:29:46.177Z,29.4
2022-08-19T06:30:48.663Z,29.4
2022-08-19T06:31:50.854Z,29.4
2022-08-19T06:32:54.013Z,29.4
2022-08-19T06:33:56.746Z,29.4
2022-08-19T06:34:58.958Z,29.4
2022-08-19T06:36:01.155Z,29.4
2022-08-19T06:37:03.642Z,29.4
2022-08-19T06:38:06.149Z,29.4
2022-08-19T06:39:08.626Z,29.4
2022-08-19T06:40:11.522Z,29.4
2022-08-19T06:41:13.965Z,29.4
2022-08-19T06:42:18.561Z,29.4
2022-08-19T06:44:32.456Z,29.4
2022-08-19T06:46:40.881Z,29.4
2022-08-19T06:47:49.528Z,29.4
2022-08-19T06:48:52.877Z,29.4
2022-08-19T06:51:01.140Z,29.4
2022-08-19T06:52:08.093Z,29.4
2022-08-19T06:53:15.386Z,29.4
2022-08-19T06:55:22.603Z,29.4
2022-08-19T06:56:26.089Z,29.4
2022-08-19T06:57:28.578Z,29.4
2022-08-19T06:58:32.572Z,29.4
2022-08-19T06:59:34.773Z,29.4
2022-08-19T07:00:37.359Z,29.4
2022-08-19T07:01:39.844Z,29.4
2022-08-19T07:03:50.934Z,29.4
2022-08-19T07:04:54.106Z,29.4
2022-08-19T07:05:56.654Z,29.4
2022-08-19T07:06:59.746Z,29.4
2022-08-19T07:08:06.147Z,29.4
2022-08-19T07:09:08.654Z,29.4
2022-08-19T07:10:12.604Z,29.4
2022-08-19T07:11:15.353Z,29.4
2022-08-19T07:12:18.462Z,29.4
2022-08-19T07:13:24.449Z,29.4
2022-08-19T07:14:26.674Z,29.4
2022-08-19T07:15:30.117Z,29.4
2022-08-19T07:16:32.598Z,29.4
2022-08-19T07:17:35.353Z,29.4
2022-08-19T07:18:38.894Z,29.4
2022-08-19T07:19:45.007Z,29.4
2022-08-19T07:20:50.823Z,29.4
2022-08-19T07:21:53.946Z,29.4
2022-08-19T07:22:57.257Z,29.4
2022-08-19T07:25:05.828Z,29.4
2022-08-19T07:26:09.679Z,29.4
2022-08-19T07:31:38.883Z,29.4
2022-08-19T07:32:41.367Z,29.4
2022-08-19T07:33:44.486Z,29.4
2022-08-19T07:34:51.077Z,29.4
2022-08-19T07:35:53.591Z,29.4
2022-08-19T07:36:55.797Z,29.4
2022-08-19T07:37:58.275Z,29.4
2022-08-19T07:39:00.477Z,29.4
2022-08-19T07:40:03.485Z,29.4
2022-08-19T07:41:05.816Z,29.4
2022-08-19T07:42:08.009Z,29.4
2022-08-19T07:44:15.485Z,29.4
2022-08-19T07:45:17.963Z,29.4
2022-08-19T07:46:20.447Z,29.4
2022-08-19T07:48:27.924Z,29.4
2022-08-19T07:49:30.127Z,29.4
2022-08-19T07:50:32.610Z,29.4
2022-08-19T07:52:40.130Z,29.4
2022-08-19T07:53:42.849Z,29.4
2022-08-19T07:54:45.327Z,29.5
2022-08-19T07:55:47.261Z,29.4
2022-08-19T07:57:54.733Z,29.4
2022-08-19T07:58:57.305Z,29.5
2022-08-19T07:59:59.885Z,29.5
2022-08-19T08:01:02.093Z,29.5
2022-08-19T08:02:04.868Z,29.5
2022-08-19T08:03:07.584Z,29.5
2022-08-19T08:04:09.515Z,29.5
2022-08-19T08:05:11.728Z,29.5
2022-08-19T08:06:15.442Z,29.5
2022-08-19T08:07:17.913Z,29.5
2022-08-19T08:08:20.397Z,29.4
2022-08-19T08:09:26.856Z,29.4
2022-08-19T08:10:29.863Z,29.5
2022-08-19T08:11:33.127Z,29.4
2022-08-19T08:12:40.071Z,29.5
2022-08-19T08:13:42.278Z,29.5
2022-08-19T08:16:55.653Z,29.5
2022-08-19T08:18:02.695Z,29.5
2022-08-19T08:20:10.247Z,29.4
2022-08-19T08:21:12.728Z,29.4
2022-08-19T08:22:14.943Z,29.4
2022-08-19T08:23:16.894Z,29.4
2022-08-19T08:24:19.103Z,29.4
2022-08-19T08:25:21.571Z,29.4
2022-08-19T08:26:24.957Z,29.4
2022-08-19T08:27:28.153Z,29.4
2022-08-19T08:28:34.632Z,29.4
2022-08-19T08:29:37.118Z,29.4
2022-08-19T08:30:39.603Z,29.4
2022-08-19T08:31:45.594Z,29.4
2022-08-19T08:32:52.571Z,29.4
2022-08-19T08:33:55.045Z,29.4
2022-08-19T08:34:57.545Z,29.4
2022-08-19T08:35:59.765Z,29.4
2022-08-19T08:37:01.953Z,29.4
2022-08-19T08:38:04.157Z,29.4
2022-08-19T08:39:06.431Z,29.4
2022-08-19T08:41:13.946Z,29.4
2022-08-19T08:43:21.055Z,29.4
2022-08-19T08:44:23.969Z,29.4
2022-08-19T08:46:33.741Z,29.4
2022-08-19T08:47:36.419Z,29.4
2022-08-19T08:48:42.120Z,29.4
2022-08-19T08:50:54.081Z,29.4
2022-08-19T08:53:01.734Z,29.4
2022-08-19T08:54:04.570Z,29.4
2022-08-19T08:56:13.134Z,29.4
2022-08-19T08:57:19.723Z,29.4
2022-08-19T08:58:22.873Z,29.4
2022-08-19T08:59:25.372Z,29.4
2022-08-19T09:00:27.902Z,29.4
2022-08-19T09:01:31.581Z,29.4
2022-08-19T09:02:33.967Z,29.4
2022-08-19T09:03:36.466Z,29.4
2022-08-19T09:04:39.180Z,29.4
2022-08-19T09:06:47.098Z,29.4
2022-08-19T09:07:51.669Z,29.4
2022-08-19T09:10:00.469Z,29.4
2022-08-19T09:13:13.474Z,29.4
2022-08-19T09:17:30.401Z,29.3
2022-08-19T09:18:32.890Z,29.3
2022-08-19T09:19:35.118Z,29.3
2022-08-19T09:21:42.653Z,29.3
2022-08-19T09:22:47.918Z,29.3
2022-08-19T09:23:52.633Z,29.3
2022-08-19T09:24:54.864Z,29.3
2022-08-19T09:25:59.464Z,29.3
2022-08-19T09:29:11.977Z,29.4
2022-08-19T09:30:14.398Z,29.3
2022-08-19T09:31:17.334Z,29.3
2022-08-19T09:33:24.536Z,29.4
2022-08-19T09:34:27.111Z,29.4
2022-08-19T09:35:29.775Z,29.4
2022-08-19T09:38:44.663Z,29.4
2022-08-19T09:39:46.998Z,29.4
2022-08-19T09:40:52.046Z,29.3
2022-08-19T09:41:54.529Z,29.4
2022-08-19T09:43:01.497Z,29.4
2022-08-19T09:45:13.770Z,29.4
2022-08-19T09:48:26.497Z,29.4
2022-08-19T09:49:29.730Z,29.4
2022-08-19T09:51:40.117Z,29.4
2022-08-19T09:54:54.384Z,29.3
2022-08-19T09:55:56.858Z,29.4
2022-08-19T09:56:58.996Z,29.4
2022-08-19T09:58:06.423Z,29.4
2022-08-19T09:59:08.914Z,29.4
2022-08-19T10:00:10.857Z,29.4
2022-08-19T10:01:13.318Z,29.4
2022-08-19T10:04:26.475Z,29.4
2022-08-19T10:05:31.927Z,29.4
2022-08-19T10:07:39.220Z,29.4
2022-08-19T10:09:47.721Z,29.4
2022-08-19T10:10:50.213Z,29.4
2022-08-19T10:12:57.698Z,29.4
2022-08-19T10:14:00.241Z,29.4
2022-08-19T10:15:02.752Z,29.4
2022-08-19T10:16:05.255Z,29.4
2022-08-19T10:18:12.754Z,29.4
2022-08-19T10:20:21.132Z,29.4
2022-08-19T10:22:28.336Z,29.4
2022-08-19T10:23:36.542Z,29.4
2022-08-19T10:25:45.011Z,29.4
2022-08-19T10:27:57.912Z,29.4
2022-08-19T10:29:00.116Z,29.4
2022-08-19T10:30:03.233Z,29.3
2022-08-19T10:31:09.977Z,29.3
2022-08-19T10:35:28.168Z,29.3
2022-08-19T10:36:32.703Z,29.3
2022-08-19T10:39:50.502Z,29.3
2022-08-19T10:40:53.861Z,29.3
2022-08-19T10:41:57.101Z,29.3
2022-08-19T10:42:59.585Z,29.3
2022-08-19T10:45:07.542Z,29.3
2022-08-19T10:48:22.528Z,29.3
2022-08-19T10:49:24.838Z,29.3
2022-08-19T10:51:32.052Z,29.3
2022-08-19T10:53:41.951Z,29.4
2022-08-19T10:54:44.146Z,29.4
2022-08-19T10:55:46.392Z,29.3
2022-08-19T10:56:48.597Z,29.3
2022-08-19T10:58:56.071Z,29.4
2022-08-19T10:59:58.544Z,29.4
2022-08-19T11:01:01.042Z,29.4
2022-08-19T11:02:03.178Z,29.4
2022-08-19T11:03:05.675Z,29.4
2022-08-19T11:04:12.644Z,29.4
2022-08-19T11:05:15.245Z,29.4
2022-08-19T11:06:17.783Z,29.4
2022-08-19T11:07:19.997Z,29.4
2022-08-19T11:10:32.482Z,29.4
2022-08-19T11:12:39.682Z,29.4
2022-08-19T11:13:41.880Z,29.4
2022-08-19T11:14:44.081Z,29.4
2022-08-19T11:15:46.270Z,29.4
2022-08-19T11:16:48.740Z,29.4
2022-08-19T11:17:50.850Z,29.4
2022-08-19T11:18:53.324Z,29.4
2022-08-19T11:19:55.797Z,29.4
2022-08-19T11:20:58.283Z,29.4
2022-08-19T11:22:01.591Z,29.4
2022-08-19T11:23:06.147Z,29.4
2022-08-19T11:24:08.628Z,29.4
2022-08-19T11:25:11.058Z,29.4
2022-08-19T11:26:13.614Z,29.4
2022-08-19T11:27:16.101Z,29.4
2022-08-19T11:28:18.574Z,29.4
2022-08-19T11:29:20.776Z,29.4
2022-08-19T11:30:22.978Z,29.4
2022-08-19T11:32:30.451Z,29.4
2022-08-19T11:33:32.669Z,29.4
2022-08-19T11:34:34.728Z,29.4
2022-08-19T11:35:36.376Z,29.4
2022-08-19T11:36:38.592Z,29.3
2022-08-19T11:37:40.782Z,29.4
2022-08-19T11:38:43.269Z,29.4
2022-08-19T11:40:50.765Z,29.4
2022-08-19T11:41:53.256Z,29.4
2022-08-19T11:42:54.887Z,29.4
2022-08-19T11:43:56.873Z,29.4
2022-08-19T11:44:59.103Z,29.4
2022-08-19T11:46:01.303Z,29.3
2022-08-19T11:48:08.786Z,29.4
2022-08-19T11:50:16.274Z,29.4
2022-08-19T11:51:18.478Z,29.4
2022-08-19T11:52:20.952Z,29.4
2022-08-19T11:53:23.181Z,29.4
2022-08-19T11:54:25.700Z,29.4
2022-08-19T11:55:27.896Z,29.4
2022-08-19T11:56:30.375Z,29.4
2022-08-19T11:57:32.341Z,29.4
2022-08-19T11:58:34.835Z,29.4
2022-08-19T11:59:37.321Z,29.4
2022-08-19T12:01:45.719Z,29.4
2022-08-19T12:02:48.199Z,29.4
2022-08-19T12:03:50.986Z,29.4
2022-08-19T12:04:53.508Z,29.4
2022-08-19T12:05:55.450Z,29.4
2022-08-19T12:06:57.653Z,29.4
2022-08-19T12:07:59.595Z,29.4
2022-08-19T12:09:01.789Z,29.4
2022-08-19T12:10:04.775Z,29.4
2022-08-19T12:11:07.396Z,29.4
2022-08-19T12:12:09.302Z,29.4
2022-08-19T12:13:11.496Z,29.4
2022-08-19T12:14:16.833Z,29.4
2022-08-19T12:15:20.940Z,29.4
2022-08-19T12:16:23.436Z,29.4
2022-08-19T12:17:25.930Z,29.4
2022-08-19T12:18:27.868Z,29.4
2022-08-19T12:19:30.069Z,29.4
2022-08-19T12:21:39.894Z,29.4
2022-08-19T12:22:42.384Z,29.4
2022-08-19T12:23:44.871Z,29.4
2022-08-19T12:24:47.068Z,29.4
2022-08-19T12:25:49.265Z,29.4
2022-08-19T12:27:59.102Z,29.4
2022-08-19T12:29:02.448Z,29.4
2022-08-19T12:30:04.925Z,29.4
2022-08-19T12:31:07.135Z,29.4
2022-08-19T12:33:14.618Z,29.4
2022-08-19T12:34:17.094Z,29.4
2022-08-19T12:36:24.993Z,29.4
2022-08-19T12:37:27.202Z,29.4
2022-08-19T12:38:29.415Z,29.4
2022-08-19T12:39:32.012Z,29.4
2022-08-19T12:40:34.371Z,29.4
2022-08-19T12:42:41.558Z,29.4
2022-08-19T12:43:44.035Z,29.4
2022-08-19T12:44:46.513Z,29.4
2022-08-19T12:45:48.762Z,29.4
2022-08-19T12:47:57.040Z,29.4
2022-08-19T12:51:10.098Z,29.4
2022-08-19T12:53:17.592Z,29.4
2022-08-19T12:54:19.521Z,29.4
2022-08-19T12:55:22.035Z,29.4
2022-08-19T12:56:24.258Z,29.4
2022-08-19T12:58:31.724Z,29.4
2022-08-19T12:59:33.924Z,29.4
2022-08-19T13:00:36.547Z,29.4
2022-08-19T13:01:39.172Z,29.4
2022-08-19T13:02:41.374Z,29.4
2022-08-19T13:03:43.855Z,29.4
2022-08-19T13:04:46.069Z,29.4
2022-08-19T13:05:48.558Z,29.4
2022-08-19T13:06:51.033Z,29.4
2022-08-19T13:07:53.729Z,29.4
2022-08-19T13:10:01.657Z,29.4
2022-08-19T13:11:03.864Z,29.4
2022-08-19T13:12:06.081Z,29.4
2022-08-19T13:13:08.557Z,29.4
2022-08-19T13:14:10.772Z,29.4
2022-08-19T13:16:18.745Z,29.4
2022-08-19T13:17:20.943Z,29.4
2022-08-19T13:18:24.205Z,29.4
2022-08-19T13:19:26.710Z,29.4
2022-08-19T13:20:29.230Z,29.4
2022-08-19T13:21:31.152Z,29.4
2022-08-19T13:22:33.634Z,29.4
2022-08-19T13:23:35.820Z,29.4
2022-08-19T13:24:38.330Z,29.4
2022-08-19T13:26:50.329Z,29.4
2022-08-19T13:27:53.172Z,29.4
2022-08-19T13:28:55.610Z,29.4
2022-08-19T13:29:57.306Z,29.4
2022-08-19T13:30:59.821Z,29.4
2022-08-19T13:32:03.843Z,29.4
2022-08-19T13:33:06.038Z,29.4
2022-08-19T13:34:07.968Z,29.4
2022-08-19T13:36:17.571Z,29.4
2022-08-19T13:37:20.055Z,29.4
2022-08-19T13:38:22.260Z,29.4
2022-08-19T13:39:25.496Z,29.4
2022-08-19T13:40:27.997Z,29.3
2022-08-19T13:41:29.922Z,29.3
2022-08-19T13:42:32.411Z,29.3
2022-08-19T13:43:34.616Z,29.3
2022-08-19T13:44:36.806Z,29.3
2022-08-19T13:45:39.276Z,29.3
2022-08-19T13:46:41.507Z,29.3
2022-08-19T13:47:43.713Z,29.3
2022-08-19T13:48:46.188Z,29.3
2022-08-19T13:49:48.665Z,29.3
2022-08-19T13:50:50.852Z,29.3
2022-08-19T13:51:52.835Z,29.3
2022-08-19T13:52:55.331Z,29.3
2022-08-19T13:53:57.241Z,29.3
2022-08-19T13:54:59.469Z,29.4
2022-08-19T13:56:01.666Z,29.4
2022-08-19T13:57:04.159Z,29.3
2022-08-19T13:58:06.343Z,29.3
2022-08-19T13:59:08.819Z,29.4
2022-08-19T14:00:11.024Z,29.3
2022-08-19T14:01:13.494Z,29.3
2022-08-19T14:02:16.166Z,29.4
2022-08-19T14:03:18.379Z,29.3
2022-08-19T14:04:20.561Z,29.3
2022-08-19T14:05:22.510Z,29.3
2022-08-19T14:06:25.032Z,29.3
2022-08-19T14:07:27.520Z,29.3
2022-08-19T14:08:30.003Z,29.3
2022-08-19T14:09:32.501Z,29.3
2022-08-19T14:10:34.722Z,29.3
2022-08-19T14:11:37.202Z,29.4
2022-08-19T14:12:39.405Z,29.3
2022-08-19T14:13:41.878Z,29.4
2022-08-19T14:14:44.369Z,29.4
2022-08-19T14:15:46.600Z,29.4
2022-08-19T14:16:48.808Z,29.4
2022-08-19T14:17:50.962Z,29.4
2022-08-19T14:18:53.442Z,29.4
2022-08-19T14:19:55.658Z,29.4
2022-08-19T14:20:59.904Z,29.4
2022-08-19T14:22:02.108Z,29.4
2022-08-19T14:23:04.328Z,29.4
2022-08-19T14:24:06.532Z,29.4
2022-08-19T14:25:09.001Z,29.4
2022-08-19T14:26:11.213Z,29.4
2022-08-19T14:27:14.270Z,29.4
2022-08-19T14:28:16.750Z,29.4
2022-08-19T14:29:19.002Z,29.4
2022-08-19T14:30:20.945Z,29.4
2022-08-19T14:31:25.095Z,29.4
2022-08-19T14:32:29.131Z,29.4
2022-08-19T14:33:31.708Z,29.4
2022-08-19T14:34:33.650Z,29.4
2022-08-19T14:35:36.183Z,29.4
2022-08-19T14:36:40.314Z,29.4
2022-08-19T14:38:47.783Z,29.4
2022-08-19T14:39:50.419Z,29.4
2022-08-19T14:41:58.420Z,29.4
2022-08-19T14:43:02.809Z,29.4
2022-08-19T14:44:05.307Z,29.4
2022-08-19T14:45:07.788Z,29.4
2022-08-19T14:46:11.540Z,29.4
2022-08-19T14:47:15.137Z,29.4
2022-08-19T14:50:27.609Z,29.4
2022-08-19T14:51:29.800Z,29.4
2022-08-19T14:52:32.012Z,29.4
2022-08-19T14:53:36.329Z,29.3
2022-08-19T14:54:38.539Z,29.4
2022-08-19T14:55:41.538Z,29.3
2022-08-19T14:56:45.009Z,29.3
2022-08-19T14:57:47.427Z,29.3
2022-08-19T14:58:49.652Z,29.4
2022-08-19T14:59:52.295Z,29.4
2022-08-19T15:00:54.783Z,29.4
2022-08-19T15:01:57.534Z,29.4
2022-08-19T15:03:04.338Z,29.4
2022-08-19T15:04:06.532Z,29.4
2022-08-19T15:05:08.731Z,29.4
2022-08-19T15:07:16.204Z,29.4
2022-08-19T15:08:18.677Z,29.3
2022-08-19T15:09:21.168Z,29.4
2022-08-19T15:10:23.652Z,29.4
2022-08-19T15:11:26.126Z,29.4
2022-08-19T15:12:28.592Z,29.3
2022-08-19T15:13:30.805Z,29.4
2022-08-19T15:14:33.616Z,29.4
2022-08-19T15:15:36.091Z,29.3
2022-08-19T15:16:38.582Z,29.4
2022-08-19T15:18:45.908Z,29.3
2022-08-19T15:19:49.611Z,29.4
2022-08-19T15:20:52.728Z,29.4
2022-08-19T15:21:55.334Z,29.4
2022-08-19T15:22:57.557Z,29.4
2022-08-19T15:23:59.482Z,29.4
2022-08-19T15:25:02.036Z,29.3
2022-08-19T15:26:05.993Z,29.4
2022-08-19T15:27:08.480Z,29.4
2022-08-19T15:28:10.976Z,29.4
2022-08-19T15:29:13.163Z,29.4
2022-08-19T15:30:15.643Z,29.4
2022-08-19T15:32:22.872Z,29.4
2022-08-19T15:33:25.345Z,29.4
2022-08-19T15:34:27.573Z,29.4
2022-08-19T15:35:30.060Z,29.4
2022-08-19T15:36:32.248Z,29.4
2022-08-19T15:39:44.837Z,29.4
2022-08-19T15:40:47.171Z,29.4
2022-08-19T15:41:49.653Z,29.4
2022-08-19T15:42:52.424Z,29.4
2022-08-19T15:43:54.902Z,29.4
2022-08-19T15:46:01.813Z,29.4
2022-08-19T15:47:04.295Z,29.4
2022-08-19T15:48:06.233Z,29.4
2022-08-19T15:49:08.715Z,29.4
2022-08-19T15:50:11.729Z,29.4
2022-08-19T15:51:13.937Z,29.4
2022-08-19T15:52:16.154Z,29.4
2022-08-19T15:53:18.390Z,29.4
2022-08-19T15:54:20.307Z,29.4
2022-08-19T15:56:28.688Z,29.4
2022-08-19T15:57:30.887Z,29.4
2022-08-19T15:58:33.377Z,29.4
2022-08-19T16:00:41.061Z,29.4
2022-08-19T16:01:44.207Z,29.4
2022-08-19T16:02:47.236Z,29.4
2022-08-19T16:03:54.664Z,29.4
2022-08-19T16:04:57.249Z,29.4
2022-08-19T16:05:59.835Z,29.4
2022-08-19T16:07:02.069Z,29.4
2022-08-19T16:08:04.265Z,29.4
2022-08-19T16:09:06.479Z,29.4
2022-08-19T16:11:13.683Z,29.4
2022-08-19T16:12:20.593Z,29.4
2022-08-19T16:13:22.792Z,29.4
2022-08-19T16:14:25.274Z,29.4
2022-08-19T16:15:27.771Z,29.4
2022-08-19T16:17:34.959Z,29.4
2022-08-19T16:18:37.442Z,29.4
2022-08-19T16:19:39.390Z,29.4
2022-08-19T16:20:41.871Z,29.4
2022-08-19T16:21:44.091Z,29.4
2022-08-19T16:22:46.563Z,29.4
2022-08-19T16:23:49.083Z,29.4
2022-08-19T16:24:50.721Z,29.4
2022-08-19T16:25:53.209Z,29.4
2022-08-19T16:26:55.384Z,29.4
2022-08-19T16:29:02.328Z,29.4
2022-08-19T16:30:08.793Z,29.4
2022-08-19T16:31:10.993Z,29.4
2022-08-19T16:32:13.485Z,29.4
2022-08-19T16:34:20.977Z,29.4
2022-08-19T16:35:23.178Z,29.4
2022-08-19T16:36:26.709Z,29.3
2022-08-19T16:37:35.186Z,29.4
2022-08-19T16:38:37.677Z,29.4